sensor_id;sensor_type;location;lat;lon;timestamp;temperature;humidity
26503;DHT22;14177;51.520;6.764;2023-07-02T00:00:22;18.10;99.90
26503;DHT22;14177;51.520;6.764;2023-07-02T00:02:49;18.10;99.90
26503;DHT22;14177;51.520;6.764;2023-07-02T00:05:16;18.10;99.90
26503;DHT22;14177;51.520;6.764;2023-07-02T00:07:44;18.10;99.90
26503;DHT22;14177;51.520;6.764;2023-07-02T00:10:11;18.10;99.90
26503;DHT22;14177;51.520;6.764;2023-07-02T00:12:38;18.10;99.90
26503;DHT22;14177;51.520;6.764;2023-07-02T00:15:05;18.10;99.90
26503;DHT22;14177;51.520;6.764;2023-07-02T00:17:33;18.10;99.90
26503;DHT22;14177;51.520;6.764;2023-07-02T00:20:00;18.10;99.90
26503;DHT22;14177;51.520;6.764;2023-07-02T00:22:33;18.10;99.90
26503;DHT22;14177;51.520;6.764;2023-07-02T00:25:03;18.10;99.90
26503;DHT22;14177;51.520;6.764;2023-07-02T00:27:30;18.10;99.90
26503;DHT22;14177;51.520;6.764;2023-07-02T00:29:57;18.00;99.90
26503;DHT22;14177;51.520;6.764;2023-07-02T00:32:24;18.00;99.90
26503;DHT22;14177;51.520;6.764;2023-07-02T00:34:53;18.00;99.90
26503;DHT22;14177;51.520;6.764;2023-07-02T00:37:20;18.00;99.90
26503;DHT22;14177;51.520;6.764;2023-07-02T00:39:47;18.00;99.90
26503;DHT22;14177;51.520;6.764;2023-07-02T00:42:17;17.90;99.90
26503;DHT22;14177;51.520;6.764;2023-07-02T00:44:48;17.90;99.90
26503;DHT22;14177;51.520;6.764;2023-07-02T00:47:19;17.90;99.90
26503;DHT22;14177;51.520;6.764;2023-07-02T00:49:46;17.90;99.90
26503;DHT22;14177;51.520;6.764;2023-07-02T00:52:13;17.90;99.90
26503;DHT22;14177;51.520;6.764;2023-07-02T00:54:40;17.90;99.90
26503;DHT22;14177;51.520;6.764;2023-07-02T00:57:07;17.90;99.90
26503;DHT22;14177;51.520;6.764;2023-07-02T00:59:34;17.80;99.90
26503;DHT22;14177;51.520;6.764;2023-07-02T01:02:02;17.90;99.90
26503;DHT22;14177;51.520;6.764;2023-07-02T01:04:30;17.80;99.90
26503;DHT22;14177;51.520;6.764;2023-07-02T01:06:57;17.80;99.90
26503;DHT22;14177;51.520;6.764;2023-07-02T01:09:25;17.90;99.90
26503;DHT22;14177;51.520;6.764;2023-07-02T01:11:57;17.90;99.90
26503;DHT22;14177;51.520;6.764;2023-07-02T01:14:35;17.80;99.90
26503;DHT22;14177;51.520;6.764;2023-07-02T01:17:06;17.80;99.90
26503;DHT22;14177;51.520;6.764;2023-07-02T01:19:54;17.80;99.90
26503;DHT22;14177;51.520;6.764;2023-07-02T01:22:27;17.70;99.90
26503;DHT22;14177;51.520;6.764;2023-07-02T01:24:55;17.70;99.90
26503;DHT22;14177;51.520;6.764;2023-07-02T01:27:23;17.70;99.90
26503;DHT22;14177;51.520;6.764;2023-07-02T01:29:51;17.70;99.90
26503;DHT22;14177;51.520;6.764;2023-07-02T01:32:19;17.70;99.90
26503;DHT22;14177;51.520;6.764;2023-07-02T01:34:47;17.70;99.90
26503;DHT22;14177;51.520;6.764;2023-07-02T01:37:16;17.70;99.90
26503;DHT22;14177;51.520;6.764;2023-07-02T01:39:46;17.70;99.90
26503;DHT22;14177;51.520;6.764;2023-07-02T01:42:17;17.70;99.90
26503;DHT22;14177;51.520;6.764;2023-07-02T01:44:47;17.70;99.90
26503;DHT22;14177;51.520;6.764;2023-07-02T01:47:15;17.70;99.90
26503;DHT22;14177;51.520;6.764;2023-07-02T01:49:43;17.70;99.90
26503;DHT22;14177;51.520;6.764;2023-07-02T01:52:10;17.60;99.90
26503;DHT22;14177;51.520;6.764;2023-07-02T01:54:37;17.60;99.90
26503;DHT22;14177;51.520;6.764;2023-07-02T01:57:04;17.60;99.90
26503;DHT22;14177;51.520;6.764;2023-07-02T01:59:34;17.60;99.90
26503;DHT22;14177;51.520;6.764;2023-07-02T02:02:01;17.60;99.90
26503;DHT22;14177;51.520;6.764;2023-07-02T02:04:28;17.50;99.90
26503;DHT22;14177;51.520;6.764;2023-07-02T02:06:56;17.50;99.90
26503;DHT22;14177;51.520;6.764;2023-07-02T02:09:23;17.50;99.90
26503;DHT22;14177;51.520;6.764;2023-07-02T02:11:51;17.40;99.90
26503;DHT22;14177;51.520;6.764;2023-07-02T02:14:20;17.40;99.90
26503;DHT22;14177;51.520;6.764;2023-07-02T02:16:48;17.40;99.90
26503;DHT22;14177;51.520;6.764;2023-07-02T02:19:15;17.40;99.90
26503;DHT22;14177;51.520;6.764;2023-07-02T02:21:43;17.40;99.90
26503;DHT22;14177;51.520;6.764;2023-07-02T02:24:10;17.40;99.90
26503;DHT22;14177;51.520;6.764;2023-07-02T02:26:37;17.40;99.90
26503;DHT22;14177;51.520;6.764;2023-07-02T02:29:05;17.40;99.90
26503;DHT22;14177;51.520;6.764;2023-07-02T02:31:32;17.40;99.90
26503;DHT22;14177;51.520;6.764;2023-07-02T02:34:00;17.40;99.90
26503;DHT22;14177;51.520;6.764;2023-07-02T02:36:27;17.40;99.90
26503;DHT22;14177;51.520;6.764;2023-07-02T02:38:54;17.30;99.90
26503;DHT22;14177;51.520;6.764;2023-07-02T02:41:22;17.30;99.90
26503;DHT22;14177;51.520;6.764;2023-07-02T02:43:51;17.30;99.90
26503;DHT22;14177;51.520;6.764;2023-07-02T02:46:22;17.30;99.90
26503;DHT22;14177;51.520;6.764;2023-07-02T02:48:50;17.30;99.90
26503;DHT22;14177;51.520;6.764;2023-07-02T02:51:18;17.30;99.90
26503;DHT22;14177;51.520;6.764;2023-07-02T02:53:45;17.30;99.90
26503;DHT22;14177;51.520;6.764;2023-07-02T02:56:13;17.30;99.90
26503;DHT22;14177;51.520;6.764;2023-07-02T02:58:40;17.30;99.90
26503;DHT22;14177;51.520;6.764;2023-07-02T03:01:07;17.30;99.90
26503;DHT22;14177;51.520;6.764;2023-07-02T03:03:41;17.40;99.90
26503;DHT22;14177;51.520;6.764;2023-07-02T03:06:13;17.40;99.90
26503;DHT22;14177;51.520;6.764;2023-07-02T03:08:41;17.40;99.90
26503;DHT22;14177;51.520;6.764;2023-07-02T03:11:08;17.30;99.90
26503;DHT22;14177;51.520;6.764;2023-07-02T03:13:35;17.30;99.90
26503;DHT22;14177;51.520;6.764;2023-07-02T03:16:02;17.30;99.90
26503;DHT22;14177;51.520;6.764;2023-07-02T03:18:31;17.30;99.90
26503;DHT22;14177;51.520;6.764;2023-07-02T03:20:59;17.30;99.90
26503;DHT22;14177;51.520;6.764;2023-07-02T03:23:26;17.30;99.90
26503;DHT22;14177;51.520;6.764;2023-07-02T03:25:53;17.30;99.90
26503;DHT22;14177;51.520;6.764;2023-07-02T03:28:23;17.30;99.90
26503;DHT22;14177;51.520;6.764;2023-07-02T03:30:50;17.30;99.90
26503;DHT22;14177;51.520;6.764;2023-07-02T03:33:17;17.30;99.90
26503;DHT22;14177;51.520;6.764;2023-07-02T03:35:45;17.30;99.90
26503;DHT22;14177;51.520;6.764;2023-07-02T03:38:12;17.30;99.90
26503;DHT22;14177;51.520;6.764;2023-07-02T03:40:39;17.30;99.90
26503;DHT22;14177;51.520;6.764;2023-07-02T03:43:07;17.20;99.90
26503;DHT22;14177;51.520;6.764;2023-07-02T03:45:33;17.20;99.90
26503;DHT22;14177;51.520;6.764;2023-07-02T03:48:00;17.30;99.90
26503;DHT22;14177;51.520;6.764;2023-07-02T03:50:28;17.30;99.90
26503;DHT22;14177;51.520;6.764;2023-07-02T03:52:55;17.30;99.90
26503;DHT22;14177;51.520;6.764;2023-07-02T03:55:22;17.30;99.90
26503;DHT22;14177;51.520;6.764;2023-07-02T03:57:49;17.30;99.90
26503;DHT22;14177;51.520;6.764;2023-07-02T04:00:16;17.30;99.90
26503;DHT22;14177;51.520;6.764;2023-07-02T04:02:43;17.30;99.90
26503;DHT22;14177;51.520;6.764;2023-07-02T04:05:10;17.20;99.90
26503;DHT22;14177;51.520;6.764;2023-07-02T04:07:37;17.20;99.90
26503;DHT22;14177;51.520;6.764;2023-07-02T04:10:05;17.20;99.90
26503;DHT22;14177;51.520;6.764;2023-07-02T04:12:32;17.20;99.90
26503;DHT22;14177;51.520;6.764;2023-07-02T04:14:59;17.20;99.90
26503;DHT22;14177;51.520;6.764;2023-07-02T04:17:26;17.10;99.90
26503;DHT22;14177;51.520;6.764;2023-07-02T04:19:54;17.10;99.90
26503;DHT22;14177;51.520;6.764;2023-07-02T04:22:22;17.10;99.90
26503;DHT22;14177;51.520;6.764;2023-07-02T04:24:51;17.10;99.90
26503;DHT22;14177;51.520;6.764;2023-07-02T04:27:23;17.10;99.90
26503;DHT22;14177;51.520;6.764;2023-07-02T04:30:11;17.10;99.90
26503;DHT22;14177;51.520;6.764;2023-07-02T04:32:38;17.10;99.90
26503;DHT22;14177;51.520;6.764;2023-07-02T04:35:09;17.10;99.90
26503;DHT22;14177;51.520;6.764;2023-07-02T04:37:36;17.10;99.90
26503;DHT22;14177;51.520;6.764;2023-07-02T04:40:06;17.10;99.90
26503;DHT22;14177;51.520;6.764;2023-07-02T04:42:42;17.10;99.90
26503;DHT22;14177;51.520;6.764;2023-07-02T04:45:25;17.20;99.90
26503;DHT22;14177;51.520;6.764;2023-07-02T04:47:53;17.20;99.90
26503;DHT22;14177;51.520;6.764;2023-07-02T04:50:20;17.20;99.90
26503;DHT22;14177;51.520;6.764;2023-07-02T04:52:47;17.20;99.90
26503;DHT22;14177;51.520;6.764;2023-07-02T04:55:14;17.20;99.90
26503;DHT22;14177;51.520;6.764;2023-07-02T04:57:41;17.30;99.90
26503;DHT22;14177;51.520;6.764;2023-07-02T05:00:08;17.30;99.90
26503;DHT22;14177;51.520;6.764;2023-07-02T05:02:36;17.30;99.90
26503;DHT22;14177;51.520;6.764;2023-07-02T05:05:03;17.30;99.90
26503;DHT22;14177;51.520;6.764;2023-07-02T05:07:30;17.30;99.90
26503;DHT22;14177;51.520;6.764;2023-07-02T05:09:57;17.30;99.90
26503;DHT22;14177;51.520;6.764;2023-07-02T05:12:24;17.30;99.90
26503;DHT22;14177;51.520;6.764;2023-07-02T05:14:51;17.30;99.90
26503;DHT22;14177;51.520;6.764;2023-07-02T05:17:17;17.30;99.90
26503;DHT22;14177;51.520;6.764;2023-07-02T05:19:44;17.40;99.90
26503;DHT22;14177;51.520;6.764;2023-07-02T05:22:11;17.40;99.90
26503;DHT22;14177;51.520;6.764;2023-07-02T05:24:38;17.50;99.90
26503;DHT22;14177;51.520;6.764;2023-07-02T05:27:07;17.50;99.90
26503;DHT22;14177;51.520;6.764;2023-07-02T05:29:34;17.60;99.90
26503;DHT22;14177;51.520;6.764;2023-07-02T05:32:01;17.60;99.90
26503;DHT22;14177;51.520;6.764;2023-07-02T05:34:30;17.60;99.90
26503;DHT22;14177;51.520;6.764;2023-07-02T05:36:57;17.60;99.90
26503;DHT22;14177;51.520;6.764;2023-07-02T05:39:24;17.60;99.90
26503;DHT22;14177;51.520;6.764;2023-07-02T05:41:57;17.60;99.90
26503;DHT22;14177;51.520;6.764;2023-07-02T05:44:38;17.60;99.90
26503;DHT22;14177;51.520;6.764;2023-07-02T05:47:05;17.60;99.90
26503;DHT22;14177;51.520;6.764;2023-07-02T05:49:32;17.60;99.90
26503;DHT22;14177;51.520;6.764;2023-07-02T05:51:59;17.60;99.90
26503;DHT22;14177;51.520;6.764;2023-07-02T05:54:26;17.70;99.90
26503;DHT22;14177;51.520;6.764;2023-07-02T05:56:53;17.80;99.90
26503;DHT22;14177;51.520;6.764;2023-07-02T05:59:20;17.90;99.90
26503;DHT22;14177;51.520;6.764;2023-07-02T06:01:47;18.00;99.90
26503;DHT22;14177;51.520;6.764;2023-07-02T06:04:14;18.10;99.90
26503;DHT22;14177;51.520;6.764;2023-07-02T06:06:42;18.20;99.90
26503;DHT22;14177;51.520;6.764;2023-07-02T06:09:11;18.30;99.90
26503;DHT22;14177;51.520;6.764;2023-07-02T06:11:38;18.30;99.90
26503;DHT22;14177;51.520;6.764;2023-07-02T06:14:05;18.40;99.90
26503;DHT22;14177;51.520;6.764;2023-07-02T06:16:32;18.30;99.90
26503;DHT22;14177;51.520;6.764;2023-07-02T06:18:59;18.30;99.90
26503;DHT22;14177;51.520;6.764;2023-07-02T06:21:27;18.30;99.90
26503;DHT22;14177;51.520;6.764;2023-07-02T06:23:56;18.30;99.90
26503;DHT22;14177;51.520;6.764;2023-07-02T06:26:26;18.40;99.90
26503;DHT22;14177;51.520;6.764;2023-07-02T06:28:54;18.50;99.90
26503;DHT22;14177;51.520;6.764;2023-07-02T06:31:24;18.60;99.90
26503;DHT22;14177;51.520;6.764;2023-07-02T06:33:51;18.70;99.90
26503;DHT22;14177;51.520;6.764;2023-07-02T06:36:19;18.80;99.90
26503;DHT22;14177;51.520;6.764;2023-07-02T06:38:46;18.80;99.90
26503;DHT22;14177;51.520;6.764;2023-07-02T06:41:13;19.00;99.90
26503;DHT22;14177;51.520;6.764;2023-07-02T06:43:44;19.00;99.90
26503;DHT22;14177;51.520;6.764;2023-07-02T06:46:11;19.10;99.90
26503;DHT22;14177;51.520;6.764;2023-07-02T06:48:39;19.10;99.90
26503;DHT22;14177;51.520;6.764;2023-07-02T06:51:06;19.20;99.90
26503;DHT22;14177;51.520;6.764;2023-07-02T06:53:36;19.20;99.90
26503;DHT22;14177;51.520;6.764;2023-07-02T06:56:07;19.20;99.90
26503;DHT22;14177;51.520;6.764;2023-07-02T06:58:36;19.20;99.90
26503;DHT22;14177;51.520;6.764;2023-07-02T07:01:03;19.30;99.90
26503;DHT22;14177;51.520;6.764;2023-07-02T07:03:30;19.30;99.90
26503;DHT22;14177;51.520;6.764;2023-07-02T07:05:58;19.30;99.90
26503;DHT22;14177;51.520;6.764;2023-07-02T07:08:25;19.30;99.90
26503;DHT22;14177;51.520;6.764;2023-07-02T07:10:54;19.40;99.90
26503;DHT22;14177;51.520;6.764;2023-07-02T07:13:22;19.50;99.90
26503;DHT22;14177;51.520;6.764;2023-07-02T07:15:48;19.50;99.90
26503;DHT22;14177;51.520;6.764;2023-07-02T07:18:15;19.60;99.90
26503;DHT22;14177;51.520;6.764;2023-07-02T07:20:45;19.70;99.90
26503;DHT22;14177;51.520;6.764;2023-07-02T07:23:16;19.80;99.90
26503;DHT22;14177;51.520;6.764;2023-07-02T07:25:44;19.70;99.90
26503;DHT22;14177;51.520;6.764;2023-07-02T07:28:11;19.90;99.90
26503;DHT22;14177;51.520;6.764;2023-07-02T07:30:42;20.00;99.90
26503;DHT22;14177;51.520;6.764;2023-07-02T07:33:10;20.10;98.60
26503;DHT22;14177;51.520;6.764;2023-07-02T07:35:37;20.10;98.30
26503;DHT22;14177;51.520;6.764;2023-07-02T07:38:04;20.00;97.40
26503;DHT22;14177;51.520;6.764;2023-07-02T07:40:31;20.00;97.80
26503;DHT22;14177;51.520;6.764;2023-07-02T07:42:58;20.10;98.50
26503;DHT22;14177;51.520;6.764;2023-07-02T07:45:25;20.30;98.20
26503;DHT22;14177;51.520;6.764;2023-07-02T07:47:52;20.40;98.50
26503;DHT22;14177;51.520;6.764;2023-07-02T07:50:19;20.50;98.30
26503;DHT22;14177;51.520;6.764;2023-07-02T07:52:45;20.50;98.00
26503;DHT22;14177;51.520;6.764;2023-07-02T07:55:12;20.60;98.40
26503;DHT22;14177;51.520;6.764;2023-07-02T07:57:40;20.50;97.40
26503;DHT22;14177;51.520;6.764;2023-07-02T08:00:07;20.60;97.60
26503;DHT22;14177;51.520;6.764;2023-07-02T08:02:48;20.60;98.00
26503;DHT22;14177;51.520;6.764;2023-07-02T08:05:15;20.60;97.30
26503;DHT22;14177;51.520;6.764;2023-07-02T08:07:41;20.60;96.70
26503;DHT22;14177;51.520;6.764;2023-07-02T08:10:09;20.70;96.30
26503;DHT22;14177;51.520;6.764;2023-07-02T08:12:36;20.80;95.90
26503;DHT22;14177;51.520;6.764;2023-07-02T08:15:03;20.80;94.60
26503;DHT22;14177;51.520;6.764;2023-07-02T08:17:32;20.80;93.50
26503;DHT22;14177;51.520;6.764;2023-07-02T08:19:59;20.70;92.80
26503;DHT22;14177;51.520;6.764;2023-07-02T08:22:27;20.80;91.10
26503;DHT22;14177;51.520;6.764;2023-07-02T08:24:54;20.70;92.00
26503;DHT22;14177;51.520;6.764;2023-07-02T08:27:21;20.90;92.60
26503;DHT22;14177;51.520;6.764;2023-07-02T08:29:48;21.10;92.80
26503;DHT22;14177;51.520;6.764;2023-07-02T08:32:15;21.20;90.70
26503;DHT22;14177;51.520;6.764;2023-07-02T08:34:42;21.30;91.30
26503;DHT22;14177;51.520;6.764;2023-07-02T08:37:09;21.30;87.40
26503;DHT22;14177;51.520;6.764;2023-07-02T08:39:37;21.40;85.50
26503;DHT22;14177;51.520;6.764;2023-07-02T08:42:07;21.50;85.90
26503;DHT22;14177;51.520;6.764;2023-07-02T08:44:34;21.50;78.60
26503;DHT22;14177;51.520;6.764;2023-07-02T08:47:06;21.70;79.60
26503;DHT22;14177;51.520;6.764;2023-07-02T08:49:33;21.90;77.60
26503;DHT22;14177;51.520;6.764;2023-07-02T08:52:00;21.90;74.90
26503;DHT22;14177;51.520;6.764;2023-07-02T08:54:27;21.90;73.90
26503;DHT22;14177;51.520;6.764;2023-07-02T08:56:54;22.10;76.20
26503;DHT22;14177;51.520;6.764;2023-07-02T08:59:21;22.30;75.80
26503;DHT22;14177;51.520;6.764;2023-07-02T09:01:52;22.50;76.10
26503;DHT22;14177;51.520;6.764;2023-07-02T09:04:21;22.40;73.70
26503;DHT22;14177;51.520;6.764;2023-07-02T09:07:06;22.30;75.20
26503;DHT22;14177;51.520;6.764;2023-07-02T09:09:50;22.50;74.60
26503;DHT22;14177;51.520;6.764;2023-07-02T09:12:28;22.20;77.50
26503;DHT22;14177;51.520;6.764;2023-07-02T09:15:01;22.10;75.80
26503;DHT22;14177;51.520;6.764;2023-07-02T09:17:34;21.90;78.20
26503;DHT22;14177;51.520;6.764;2023-07-02T09:20:05;21.80;79.80
26503;DHT22;14177;51.520;6.764;2023-07-02T09:22:36;21.90;82.50
26503;DHT22;14177;51.520;6.764;2023-07-02T09:25:04;22.10;80.30
26503;DHT22;14177;51.520;6.764;2023-07-02T09:27:39;22.10;79.10
26503;DHT22;14177;51.520;6.764;2023-07-02T09:30:09;21.90;79.20
26503;DHT22;14177;51.520;6.764;2023-07-02T09:32:42;21.90;79.20
26503;DHT22;14177;51.520;6.764;2023-07-02T09:35:12;21.80;77.30
26503;DHT22;14177;51.520;6.764;2023-07-02T09:37:42;21.80;76.40
26503;DHT22;14177;51.520;6.764;2023-07-02T09:40:10;22.00;76.50
26503;DHT22;14177;51.520;6.764;2023-07-02T09:42:38;21.90;76.70
26503;DHT22;14177;51.520;6.764;2023-07-02T09:45:08;21.80;76.70
26503;DHT22;14177;51.520;6.764;2023-07-02T09:47:42;21.70;75.20
26503;DHT22;14177;51.520;6.764;2023-07-02T09:50:14;21.50;75.60
26503;DHT22;14177;51.520;6.764;2023-07-02T09:52:44;21.30;74.90
26503;DHT22;14177;51.520;6.764;2023-07-02T09:55:12;21.30;76.20
26503;DHT22;14177;51.520;6.764;2023-07-02T09:57:40;21.40;78.30
26503;DHT22;14177;51.520;6.764;2023-07-02T10:00:11;21.60;79.10
26503;DHT22;14177;51.520;6.764;2023-07-02T10:02:39;21.80;75.90
26503;DHT22;14177;51.520;6.764;2023-07-02T10:05:06;22.00;76.50
26503;DHT22;14177;51.520;6.764;2023-07-02T10:07:33;22.20;74.70
26503;DHT22;14177;51.520;6.764;2023-07-02T10:10:00;22.20;75.30
26503;DHT22;14177;51.520;6.764;2023-07-02T10:12:28;22.50;73.10
26503;DHT22;14177;51.520;6.764;2023-07-02T10:14:59;22.60;73.20
26503;DHT22;14177;51.520;6.764;2023-07-02T10:20:05;22.90;71.80
26503;DHT22;14177;51.520;6.764;2023-07-02T10:22:47;23.10;71.20
26503;DHT22;14177;51.520;6.764;2023-07-02T10:25:28;23.50;71.80
26503;DHT22;14177;51.520;6.764;2023-07-02T10:27:56;23.70;70.70
26503;DHT22;14177;51.520;6.764;2023-07-02T10:30:38;23.80;68.60
26503;DHT22;14177;51.520;6.764;2023-07-02T10:33:16;23.80;68.90
26503;DHT22;14177;51.520;6.764;2023-07-02T10:35:46;23.60;69.40
26503;DHT22;14177;51.520;6.764;2023-07-02T10:38:26;23.40;67.90
26503;DHT22;14177;51.520;6.764;2023-07-02T10:40:57;23.10;67.40
26503;DHT22;14177;51.520;6.764;2023-07-02T10:43:30;22.90;67.60
26503;DHT22;14177;51.520;6.764;2023-07-02T10:45:59;22.70;68.50
26503;DHT22;14177;51.520;6.764;2023-07-02T10:48:28;22.60;68.40
26503;DHT22;14177;51.520;6.764;2023-07-02T10:50:55;22.60;68.20
26503;DHT22;14177;51.520;6.764;2023-07-02T10:53:23;22.50;68.40
26503;DHT22;14177;51.520;6.764;2023-07-02T10:55:54;22.50;69.00
26503;DHT22;14177;51.520;6.764;2023-07-02T10:58:24;22.60;68.70
26503;DHT22;14177;51.520;6.764;2023-07-02T11:00:52;22.60;69.00
26503;DHT22;14177;51.520;6.764;2023-07-02T11:03:26;22.80;68.80
26503;DHT22;14177;51.520;6.764;2023-07-02T11:05:53;22.80;67.20
26503;DHT22;14177;51.520;6.764;2023-07-02T11:08:22;22.80;68.40
26503;DHT22;14177;51.520;6.764;2023-07-02T11:10:50;23.00;68.30
26503;DHT22;14177;51.520;6.764;2023-07-02T11:13:18;23.20;68.70
26503;DHT22;14177;51.520;6.764;2023-07-02T11:15:46;23.70;68.70
26503;DHT22;14177;51.520;6.764;2023-07-02T11:18:16;24.40;67.90
26503;DHT22;14177;51.520;6.764;2023-07-02T11:20:45;24.40;64.90
26503;DHT22;14177;51.520;6.764;2023-07-02T11:23:24;24.40;65.50
26503;DHT22;14177;51.520;6.764;2023-07-02T11:26:02;24.10;63.40
26503;DHT22;14177;51.520;6.764;2023-07-02T11:28:31;23.70;63.60
26503;DHT22;14177;51.520;6.764;2023-07-02T11:31:04;23.70;64.70
26503;DHT22;14177;51.520;6.764;2023-07-02T11:33:36;23.90;66.40
26503;DHT22;14177;51.520;6.764;2023-07-02T11:36:06;24.00;63.30
26503;DHT22;14177;51.520;6.764;2023-07-02T11:38:36;23.80;65.60
26503;DHT22;14177;51.520;6.764;2023-07-02T11:41:04;24.10;65.90
26503;DHT22;14177;51.520;6.764;2023-07-02T11:43:31;24.20;65.80
26503;DHT22;14177;51.520;6.764;2023-07-02T11:45:59;24.00;65.50
26503;DHT22;14177;51.520;6.764;2023-07-02T11:48:26;24.00;65.80
26503;DHT22;14177;51.520;6.764;2023-07-02T11:50:53;23.80;66.30
26503;DHT22;14177;51.520;6.764;2023-07-02T11:53:23;23.60;66.40
26503;DHT22;14177;51.520;6.764;2023-07-02T11:55:52;23.40;67.90
26503;DHT22;14177;51.520;6.764;2023-07-02T11:58:19;23.40;69.30
26503;DHT22;14177;51.520;6.764;2023-07-02T12:00:46;23.70;68.30
26503;DHT22;14177;51.520;6.764;2023-07-02T12:03:13;24.20;68.00
26503;DHT22;14177;51.520;6.764;2023-07-02T12:05:39;24.30;66.00
26503;DHT22;14177;51.520;6.764;2023-07-02T12:08:06;24.20;66.20
26503;DHT22;14177;51.520;6.764;2023-07-02T12:10:34;24.10;66.80
26503;DHT22;14177;51.520;6.764;2023-07-02T12:13:05;24.10;67.10
26503;DHT22;14177;51.520;6.764;2023-07-02T12:15:31;23.70;66.90
26503;DHT22;14177;51.520;6.764;2023-07-02T12:17:59;23.50;68.60
26503;DHT22;14177;51.520;6.764;2023-07-02T12:20:26;23.30;67.10
26503;DHT22;14177;51.520;6.764;2023-07-02T12:22:53;23.20;67.00
26503;DHT22;14177;51.520;6.764;2023-07-02T12:25:20;23.40;67.60
26503;DHT22;14177;51.520;6.764;2023-07-02T12:27:47;23.70;67.10
26503;DHT22;14177;51.520;6.764;2023-07-02T12:30:14;23.90;67.00
26503;DHT22;14177;51.520;6.764;2023-07-02T12:32:45;24.20;66.50
26503;DHT22;14177;51.520;6.764;2023-07-02T12:35:12;24.60;66.40
26503;DHT22;14177;51.520;6.764;2023-07-02T12:37:43;24.40;64.80
26503;DHT22;14177;51.520;6.764;2023-07-02T12:40:11;24.70;67.30
26503;DHT22;14177;51.520;6.764;2023-07-02T12:42:41;25.30;65.60
26503;DHT22;14177;51.520;6.764;2023-07-02T12:45:10;25.40;64.60
26503;DHT22;14177;51.520;6.764;2023-07-02T12:47:39;25.30;63.80
26503;DHT22;14177;51.520;6.764;2023-07-02T12:50:07;25.30;64.70
26503;DHT22;14177;51.520;6.764;2023-07-02T12:52:37;25.70;65.10
26503;DHT22;14177;51.520;6.764;2023-07-02T12:55:08;25.70;63.40
26503;DHT22;14177;51.520;6.764;2023-07-02T12:57:37;25.60;63.20
26503;DHT22;14177;51.520;6.764;2023-07-02T13:00:05;25.40;63.90
26503;DHT22;14177;51.520;6.764;2023-07-02T13:02:35;25.30;64.60
26503;DHT22;14177;51.520;6.764;2023-07-02T13:05:19;25.70;63.80
26503;DHT22;14177;51.520;6.764;2023-07-02T13:07:48;25.80;63.20
26503;DHT22;14177;51.520;6.764;2023-07-02T13:10:15;25.60;63.50
26503;DHT22;14177;51.520;6.764;2023-07-02T13:12:42;25.70;64.20
26503;DHT22;14177;51.520;6.764;2023-07-02T13:15:09;25.70;63.50
26503;DHT22;14177;51.520;6.764;2023-07-02T13:17:46;25.80;63.30
26503;DHT22;14177;51.520;6.764;2023-07-02T13:20:13;25.60;63.50
26503;DHT22;14177;51.520;6.764;2023-07-02T13:22:41;25.30;63.70
26503;DHT22;14177;51.520;6.764;2023-07-02T13:25:08;25.10;63.90
26503;DHT22;14177;51.520;6.764;2023-07-02T13:27:36;25.10;64.50
26503;DHT22;14177;51.520;6.764;2023-07-02T13:30:07;25.00;64.80
26503;DHT22;14177;51.520;6.764;2023-07-02T13:32:34;25.00;65.10
26503;DHT22;14177;51.520;6.764;2023-07-02T13:35:02;25.00;65.20
26503;DHT22;14177;51.520;6.764;2023-07-02T13:37:29;25.20;64.80
26503;DHT22;14177;51.520;6.764;2023-07-02T13:39:57;25.10;64.90
26503;DHT22;14177;51.520;6.764;2023-07-02T13:42:24;24.90;64.40
26503;DHT22;14177;51.520;6.764;2023-07-02T13:44:51;24.90;65.30
26503;DHT22;14177;51.520;6.764;2023-07-02T13:47:18;25.10;65.30
26503;DHT22;14177;51.520;6.764;2023-07-02T13:49:45;25.20;64.80
26503;DHT22;14177;51.520;6.764;2023-07-02T13:52:12;25.40;65.60
26503;DHT22;14177;51.520;6.764;2023-07-02T13:54:39;25.60;65.30
26503;DHT22;14177;51.520;6.764;2023-07-02T13:57:06;25.90;65.00
26503;DHT22;14177;51.520;6.764;2023-07-02T13:59:33;26.00;64.80
26503;DHT22;14177;51.520;6.764;2023-07-02T14:02:01;25.90;64.10
26503;DHT22;14177;51.520;6.764;2023-07-02T14:04:28;25.90;64.40
26503;DHT22;14177;51.520;6.764;2023-07-02T14:06:55;25.80;63.30
26503;DHT22;14177;51.520;6.764;2023-07-02T14:09:22;25.40;63.70
26503;DHT22;14177;51.520;6.764;2023-07-02T14:11:49;25.10;64.70
26503;DHT22;14177;51.520;6.764;2023-07-02T14:14:16;25.10;66.60
26503;DHT22;14177;51.520;6.764;2023-07-02T14:16:43;25.00;65.30
26503;DHT22;14177;51.520;6.764;2023-07-02T14:19:12;24.90;65.70
26503;DHT22;14177;51.520;6.764;2023-07-02T14:21:39;25.00;65.00
26503;DHT22;14177;51.520;6.764;2023-07-02T14:24:06;25.10;65.20
26503;DHT22;14177;51.520;6.764;2023-07-02T14:26:34;25.10;65.00
26503;DHT22;14177;51.520;6.764;2023-07-02T14:29:00;25.10;65.20
26503;DHT22;14177;51.520;6.764;2023-07-02T14:31:27;25.40;65.70
26503;DHT22;14177;51.520;6.764;2023-07-02T14:33:56;25.70;64.30
26503;DHT22;14177;51.520;6.764;2023-07-02T14:36:23;25.70;63.70
26503;DHT22;14177;51.520;6.764;2023-07-02T14:38:50;25.70;64.20
26503;DHT22;14177;51.520;6.764;2023-07-02T14:41:16;25.80;63.90
26503;DHT22;14177;51.520;6.764;2023-07-02T14:43:43;25.70;63.70
26503;DHT22;14177;51.520;6.764;2023-07-02T14:46:10;25.90;63.50
26503;DHT22;14177;51.520;6.764;2023-07-02T14:48:38;25.90;63.30
26503;DHT22;14177;51.520;6.764;2023-07-02T14:51:05;25.80;64.00
26503;DHT22;14177;51.520;6.764;2023-07-02T14:53:32;25.80;64.70
26503;DHT22;14177;51.520;6.764;2023-07-02T14:56:01;25.60;64.50
26503;DHT22;14177;51.520;6.764;2023-07-02T14:58:30;25.60;64.60
26503;DHT22;14177;51.520;6.764;2023-07-02T15:00:58;25.60;64.40
26503;DHT22;14177;51.520;6.764;2023-07-02T15:03:27;25.60;64.40
26503;DHT22;14177;51.520;6.764;2023-07-02T15:06:11;25.30;64.40
26503;DHT22;14177;51.520;6.764;2023-07-02T15:08:40;25.10;64.90
26503;DHT22;14177;51.520;6.764;2023-07-02T15:11:08;25.00;64.50
26503;DHT22;14177;51.520;6.764;2023-07-02T15:13:36;25.20;64.30
26503;DHT22;14177;51.520;6.764;2023-07-02T15:16:05;25.30;64.20
26503;DHT22;14177;51.520;6.764;2023-07-02T15:18:32;25.30;63.40
26503;DHT22;14177;51.520;6.764;2023-07-02T15:20:58;25.20;64.60
26503;DHT22;14177;51.520;6.764;2023-07-02T15:23:27;25.00;64.20
26503;DHT22;14177;51.520;6.764;2023-07-02T15:26:02;24.90;64.40
26503;DHT22;14177;51.520;6.764;2023-07-02T15:28:31;24.70;64.30
26503;DHT22;14177;51.520;6.764;2023-07-02T15:31:03;24.60;65.20
26503;DHT22;14177;51.520;6.764;2023-07-02T15:33:35;24.80;64.10
26503;DHT22;14177;51.520;6.764;2023-07-02T15:36:03;24.90;62.90
26503;DHT22;14177;51.520;6.764;2023-07-02T15:38:31;24.90;64.00
26503;DHT22;14177;51.520;6.764;2023-07-02T15:41:12;25.10;63.40